Time;durP1;ratioP1;P1;durP2;ratioP2;P2;SDS_P1;SDS_P2;PMS_P1;PMS_P2;Temp;Humidity;BMP_temperature;BMP_pressure;BME280_temperature;BME280_humidity;BME280_pressure;Samples;Min_cycle;Max_cycle;Signal;HPM_P1;HPM_P2
2022/01/07 00:00:59;;;;;;;;;;;19.40;28.40;;;;;;494338;241;1101;-76
2022/01/07 00:03:00;;;;;;;;;;;19.40;28.50;;;;;;494078;241;1425;-76
2022/01/07 00:05:01;;;;;;;;;;;19.40;28.40;;;;;;494200;241;1372;-76
2022/01/07 00:07:02;;;;;;;;;;;19.40;28.40;;;;;;494204;241;1062;-76
2022/01/07 00:09:04;;;;;;;;;;;19.40;28.40;;;;;;494327;241;2146;-76
2022/01/07 00:11:05;;;;;;;;;;;19.40;28.40;;;;;;494469;241;1191;-76
2022/01/07 00:13:06;;;;;;;;;;;19.40;28.30;;;;;;494272;241;1251;-76
2022/01/07 00:15:08;;;;;;;;;;;19.40;28.30;;;;;;494257;241;1046;-76
2022/01/07 00:17:09;;;;;;;;;;;19.40;28.20;;;;;;494255;241;1388;-76
2022/01/07 00:19:10;;;;;;;;;;;19.40;28.20;;;;;;494263;241;1077;-76
2022/01/07 00:21:12;;;;;;;;;;;19.50;28.30;;;;;;494299;241;1146;-76
2022/01/07 00:23:13;;;;;;;;;;;19.40;28.20;;;;;;494187;241;1099;-76
2022/01/07 00:25:14;;;;;;;;;;;19.40;28.30;;;;;;494329;241;1057;-76
2022/01/07 00:27:16;;;;;;;;;;;19.40;28.40;;;;;;494249;241;1146;-76
2022/01/07 00:29:17;;;;;;;;;;;19.40;28.20;;;;;;494473;241;2190;-76
2022/01/07 00:31:19;;;;;;;;;;;19.50;28.20;;;;;;494445;241;1268;-76
2022/01/07 00:33:20;;;;;;;;;;;19.60;28.10;;;;;;494250;241;1062;-76
2022/01/07 00:35:21;;;;;;;;;;;19.50;28.10;;;;;;494477;241;1044;-76
2022/01/07 00:37:22;;;;;;;;;;;19.40;28.20;;;;;;494228;241;1054;-76
2022/01/07 00:39:24;;;;;;;;;;;19.40;28.20;;;;;;494424;241;1157;-76
2022/01/07 00:41:26;;;;;;;;;;;19.30;28.20;;;;;;494497;241;1114;-76
2022/01/07 00:43:27;;;;;;;;;;;19.30;28.20;;;;;;494376;241;1185;-76
2022/01/07 00:45:28;;;;;;;;;;;19.50;28.20;;;;;;494301;241;1057;-76
2022/01/07 00:47:29;;;;;;;;;;;19.50;28.10;;;;;;494247;241;1191;-76
2022/01/07 00:49:31;;;;;;;;;;;19.50;28.00;;;;;;494289;241;2144;-76
2022/01/07 00:51:32;;;;;;;;;;;19.50;27.90;;;;;;494397;241;1324;-76
2022/01/07 00:53:33;;;;;;;;;;;19.50;28.00;;;;;;494197;241;1154;-76
2022/01/07 00:55:36;;;;;;;;;;;19.40;28.10;;;;;;494246;241;1276;-76
2022/01/07 00:57:36;;;;;;;;;;;19.50;28.10;;;;;;494310;241;1389;-76
2022/01/07 00:59:39;;;;;;;;;;;19.50;28.10;;;;;;494540;241;1051;-76
2022/01/07 01:01:39;;;;;;;;;;;19.40;28.00;;;;;;494147;241;1416;-76
2022/01/07 01:03:40;;;;;;;;;;;19.40;28.10;;;;;;494283;241;952;-76
2022/01/07 01:05:44;;;;;;;;;;;19.40;28.20;;;;;;494256;241;1143;-76
2022/01/07 01:07:43;;;;;;;;;;;19.50;28.10;;;;;;494060;241;1502;-76
2022/01/07 01:09:44;;;;;;;;;;;19.50;28.10;;;;;;494297;241;2191;-76
2022/01/07 01:11:45;;;;;;;;;;;19.50;28.10;;;;;;494434;241;1170;-76
2022/01/07 01:13:47;;;;;;;;;;;19.50;28.00;;;;;;494281;241;1084;-76
2022/01/07 01:15:48;;;;;;;;;;;19.60;28.00;;;;;;494264;241;1193;-76
2022/01/07 01:17:50;;;;;;;;;;;19.50;28.00;;;;;;494423;241;1061;-76
2022/01/07 01:19:51;;;;;;;;;;;19.40;28.10;;;;;;494672;241;1001;-76
2022/01/07 01:21:52;;;;;;;;;;;19.40;28.10;;;;;;494287;241;1223;-76
2022/01/07 01:23:54;;;;;;;;;;;19.40;28.20;;;;;;494275;241;1152;-76
2022/01/07 01:25:55;;;;;;;;;;;19.40;28.10;;;;;;494235;241;1277;-76
2022/01/07 01:27:56;;;;;;;;;;;19.50;28.10;;;;;;494330;241;1062;-76
2022/01/07 01:29:57;;;;;;;;;;;19.60;28.10;;;;;;494279;241;2187;-76
2022/01/07 01:31:59;;;;;;;;;;;19.50;28.00;;;;;;494216;241;1116;-76
2022/01/07 01:34:00;;;;;;;;;;;19.50;28.10;;;;;;494324;241;962;-76
2022/01/07 01:36:02;;;;;;;;;;;19.50;28.00;;;;;;494221;241;1085;-76
2022/01/07 01:38:03;;;;;;;;;;;19.50;28.00;;;;;;494239;241;1073;-76
2022/01/07 01:40:04;;;;;;;;;;;19.30;28.10;;;;;;494303;241;1191;-76
2022/01/07 01:42:06;;;;;;;;;;;19.40;28.10;;;;;;494275;241;1072;-76
2022/01/07 01:44:07;;;;;;;;;;;19.40;28.00;;;;;;494647;241;1030;-76
2022/01/07 01:46:08;;;;;;;;;;;19.40;28.00;;;;;;494253;241;1056;-76
2022/01/07 01:48:10;;;;;;;;;;;19.40;28.00;;;;;;494393;241;1045;-76
2022/01/07 01:50:11;;;;;;;;;;;19.30;28.00;;;;;;494329;241;2182;-76
2022/01/07 01:52:12;;;;;;;;;;;19.40;28.00;;;;;;494252;241;1140;-76
2022/01/07 01:54:14;;;;;;;;;;;19.40;28.10;;;;;;494275;241;1171;-76
2022/01/07 01:56:15;;;;;;;;;;;19.40;28.00;;;;;;494212;241;1481;-76
2022/01/07 01:58:16;;;;;;;;;;;19.40;27.90;;;;;;494503;241;1194;-76
2022/01/07 02:00:18;;;;;;;;;;;19.40;28.00;;;;;;494304;241;974;-76
2022/01/07 02:02:19;;;;;;;;;;;19.30;28.00;;;;;;494491;241;1073;-76
2022/01/07 02:04:20;;;;;;;;;;;19.30;28.00;;;;;;494245;241;1029;-76
2022/01/07 02:06:22;;;;;;;;;;;19.40;28.00;;;;;;494148;241;1184;-76
2022/01/07 02:08:23;;;;;;;;;;;19.40;27.90;;;;;;494320;241;1025;-76
2022/01/07 02:10:24;;;;;;;;;;;19.40;27.90;;;;;;494281;241;2205;-76
2022/01/07 02:12:25;;;;;;;;;;;19.40;27.90;;;;;;494403;241;1092;-76
2022/01/07 02:14:28;;;;;;;;;;;19.40;27.90;;;;;;494204;241;1133;-76
2022/01/07 02:16:28;;;;;;;;;;;19.50;27.80;;;;;;494301;241;1422;-76
2022/01/07 02:18:29;;;;;;;;;;;19.50;27.80;;;;;;494301;241;1059;-76
2022/01/07 02:20:31;;;;;;;;;;;19.50;27.80;;;;;;494290;241;1033;-76
2022/01/07 02:22:32;;;;;;;;;;;19.40;27.80;;;;;;494209;241;1164;-76
2022/01/07 02:24:34;;;;;;;;;;;19.30;27.80;;;;;;494329;241;1138;-76
2022/01/07 02:26:35;;;;;;;;;;;19.30;27.90;;;;;;494347;241;1438;-76
2022/01/07 02:28:36;;;;;;;;;;;19.30;27.90;;;;;;494257;241;1056;-76
2022/01/07 02:30:38;;;;;;;;;;;19.30;27.90;;;;;;494375;241;2186;-76
2022/01/07 02:32:39;;;;;;;;;;;19.40;27.80;;;;;;494172;241;1150;-76
2022/01/07 02:34:40;;;;;;;;;;;19.40;27.70;;;;;;494426;241;1104;-76
2022/01/07 02:36:42;;;;;;;;;;;19.30;27.70;;;;;;494172;241;1093;-76
2022/01/07 02:38:43;;;;;;;;;;;19.40;27.70;;;;;;494235;241;1112;-76
2022/01/07 02:40:44;;;;;;;;;;;19.40;27.70;;;;;;494320;241;1621;-76
2022/01/07 02:42:46;;;;;;;;;;;19.40;27.70;;;;;;494338;241;1182;-76
2022/01/07 02:44:47;;;;;;;;;;;19.30;27.70;;;;;;494375;241;1063;-76
2022/01/07 02:46:48;;;;;;;;;;;19.30;27.70;;;;;;494256;241;1125;-76
2022/01/07 02:48:50;;;;;;;;;;;19.30;27.80;;;;;;494231;241;1046;-76
2022/01/07 02:50:51;;;;;;;;;;;19.30;27.70;;;;;;494224;241;2194;-76
2022/01/07 02:52:52;;;;;;;;;;;19.40;27.70;;;;;;494268;241;1037;-76
2022/01/07 02:54:53;;;;;;;;;;;19.40;27.50;;;;;;494287;241;1089;-76
2022/01/07 02:56:55;;;;;;;;;;;19.40;27.50;;;;;;494220;241;1205;-76
2022/01/07 02:58:56;;;;;;;;;;;19.40;27.50;;;;;;494392;241;1035;-76
2022/01/07 03:00:57;;;;;;;;;;;19.50;27.50;;;;;;494319;241;1037;-76
2022/01/07 03:02:59;;;;;;;;;;;19.50;27.50;;;;;;494239;241;1050;-76
2022/01/07 03:05:00;;;;;;;;;;;19.40;27.60;;;;;;494300;241;1035;-76
2022/01/07 03:07:01;;;;;;;;;;;19.40;27.50;;;;;;494356;241;1223;-76
2022/01/07 03:09:04;;;;;;;;;;;19.40;27.50;;;;;;494200;241;1045;-76
2022/01/07 03:11:04;;;;;;;;;;;19.50;27.40;;;;;;494272;241;2201;-76
2022/01/07 03:13:06;;;;;;;;;;;19.50;27.40;;;;;;494229;241;1167;-76
2022/01/07 03:15:07;;;;;;;;;;;19.50;27.40;;;;;;494414;241;1068;-76
2022/01/07 03:17:08;;;;;;;;;;;19.50;27.40;;;;;;494162;241;1135;-76
2022/01/07 03:19:09;;;;;;;;;;;19.40;27.40;;;;;;494261;241;1057;-76
2022/01/07 03:21:11;;;;;;;;;;;19.30;27.40;;;;;;494267;241;1195;-76
2022/01/07 03:23:12;;;;;;;;;;;19.40;27.40;;;;;;494274;241;1041;-76
2022/01/07 03:25:13;;;;;;;;;;;19.40;27.30;;;;;;494392;241;1047;-76
2022/01/07 03:27:15;;;;;;;;;;;19.40;27.40;;;;;;494252;241;1138;-76
2022/01/07 03:29:16;;;;;;;;;;;19.40;27.30;;;;;;494389;241;1069;-76
2022/01/07 03:31:17;;;;;;;;;;;19.40;27.30;;;;;;494249;241;2186;-76
2022/01/07 03:33:19;;;;;;;;;;;19.40;27.30;;;;;;494236;241;1189;-76
2022/01/07 03:35:20;;;;;;;;;;;19.40;27.40;;;;;;494277;241;960;-76
2022/01/07 03:37:21;;;;;;;;;;;19.30;27.40;;;;;;494266;241;1091;-76
2022/01/07 03:39:23;;;;;;;;;;;19.30;27.40;;;;;;494313;241;1086;-76
2022/01/07 03:41:24;;;;;;;;;;;19.30;27.30;;;;;;494190;241;1187;-76
2022/01/07 03:43:25;;;;;;;;;;;19.30;27.40;;;;;;494292;241;1072;-76
2022/01/07 03:45:27;;;;;;;;;;;19.30;27.30;;;;;;494265;241;1208;-76
2022/01/07 03:47:28;;;;;;;;;;;19.30;27.30;;;;;;494200;241;1074;-76
2022/01/07 03:49:29;;;;;;;;;;;19.40;27.20;;;;;;494257;241;1053;-76
2022/01/07 03:51:31;;;;;;;;;;;19.40;27.10;;;;;;494168;241;2215;-76
2022/01/07 03:53:32;;;;;;;;;;;19.40;27.20;;;;;;494224;241;1332;-76
2022/01/07 03:55:33;;;;;;;;;;;19.40;27.20;;;;;;494218;241;1338;-76
2022/01/07 03:57:35;;;;;;;;;;;19.30;27.20;;;;;;494400;241;1081;-76
2022/01/07 03:59:36;;;;;;;;;;;19.30;27.20;;;;;;494303;241;955;-76
2022/01/07 04:01:37;;;;;;;;;;;19.30;27.20;;;;;;494305;241;1213;-76
2022/01/07 04:03:39;;;;;;;;;;;19.30;27.10;;;;;;494335;241;1085;-76
2022/01/07 04:05:40;;;;;;;;;;;19.40;27.10;;;;;;494462;241;1037;-76
2022/01/07 04:07:41;;;;;;;;;;;19.40;27.10;;;;;;494233;241;1137;-76
2022/01/07 04:09:43;;;;;;;;;;;19.50;27.10;;;;;;494356;241;1456;-76
2022/01/07 04:11:44;;;;;;;;;;;19.40;27.00;;;;;;494191;241;2140;-76
2022/01/07 04:13:45;;;;;;;;;;;19.40;27.00;;;;;;494341;241;1058;-76
2022/01/07 04:15:47;;;;;;;;;;;19.40;27.10;;;;;;494292;241;1098;-76
2022/01/07 04:17:48;;;;;;;;;;;19.30;27.10;;;;;;494276;241;1318;-76
2022/01/07 04:19:49;;;;;;;;;;;19.30;27.10;;;;;;494435;241;1046;-76
2022/01/07 04:21:51;;;;;;;;;;;19.30;27.10;;;;;;494347;241;1178;-76
2022/01/07 04:23:52;;;;;;;;;;;19.30;27.10;;;;;;494338;241;1078;-76
2022/01/07 04:25:53;;;;;;;;;;;19.30;27.10;;;;;;494290;241;1148;-76
2022/01/07 04:27:56;;;;;;;;;;;19.30;27.10;;;;;;494277;241;1122;-76
2022/01/07 04:29:56;;;;;;;;;;;19.30;27.10;;;;;;494271;241;2116;-76
2022/01/07 04:31:57;;;;;;;;;;;19.40;27.00;;;;;;494145;241;1206;-76
2022/01/07 04:33:59;;;;;;;;;;;19.40;27.00;;;;;;494484;241;1053;-76
2022/01/07 04:36:00;;;;;;;;;;;19.40;27.00;;;;;;494216;241;1372;-76
2022/01/07 04:38:02;;;;;;;;;;;19.40;27.00;;;;;;494307;241;1045;-76
2022/01/07 04:40:03;;;;;;;;;;;19.40;27.00;;;;;;494384;241;1214;-76
2022/01/07 04:42:04;;;;;;;;;;;19.30;27.00;;;;;;494347;241;1097;-76
2022/01/07 04:44:06;;;;;;;;;;;19.30;27.00;;;;;;494300;241;1217;-76
2022/01/07 04:46:07;;;;;;;;;;;19.30;26.90;;;;;;494322;241;1126;-76
2022/01/07 04:48:08;;;;;;;;;;;19.40;26.90;;;;;;494391;241;1376;-76
2022/01/07 04:50:10;;;;;;;;;;;19.40;26.90;;;;;;494248;241;2134;-76
2022/01/07 04:52:11;;;;;;;;;;;19.30;26.80;;;;;;494367;241;1155;-76
2022/01/07 04:54:12;;;;;;;;;;;19.30;26.80;;;;;;494283;241;1123;-76
2022/01/07 04:56:14;;;;;;;;;;;19.30;26.90;;;;;;494368;241;1293;-76
2022/01/07 04:58:15;;;;;;;;;;;19.40;26.80;;;;;;494295;241;1094;-76
2022/01/07 05:00:16;;;;;;;;;;;19.30;26.80;;;;;;494245;241;1193;-76
2022/01/07 05:02:19;;;;;;;;;;;19.20;26.80;;;;;;494243;241;1161;-76
2022/01/07 05:04:20;;;;;;;;;;;19.30;26.90;;;;;;494267;241;1466;-76
2022/01/07 05:06:43;;;;;;;;;;;19.30;26.90;;;;;;494354;241;1182;-76
2022/01/07 05:08:26;;;;;;;;;;;19.40;26.80;;;;;;493103;241;1426;-76
2022/01/07 05:10:28;;;;;;;;;;;19.40;26.80;;;;;;494308;241;2182;-76
2022/01/07 05:12:30;;;;;;;;;;;19.50;26.70;;;;;;494265;241;1105;-76
2022/01/07 05:14:31;;;;;;;;;;;19.40;26.60;;;;;;494474;241;1047;-76
2022/01/07 05:16:32;;;;;;;;;;;19.40;26.60;;;;;;494416;241;1199;-76
2022/01/07 05:18:34;;;;;;;;;;;19.30;26.70;;;;;;494335;241;1005;-77
2022/01/07 05:20:35;;;;;;;;;;;19.30;26.70;;;;;;494382;241;1275;-76
2022/01/07 05:22:36;;;;;;;;;;;19.40;26.60;;;;;;494317;241;1080;-76
2022/01/07 05:24:38;;;;;;;;;;;19.40;26.60;;;;;;494426;241;1007;-76
2022/01/07 05:26:39;;;;;;;;;;;19.30;26.60;;;;;;494405;241;1509;-76
2022/01/07 05:28:40;;;;;;;;;;;19.30;26.70;;;;;;494298;241;1320;-76
2022/01/07 05:30:42;;;;;;;;;;;19.30;26.70;;;;;;494439;241;2107;-76
2022/01/07 05:32:43;;;;;;;;;;;19.20;26.70;;;;;;494398;241;1061;-76
2022/01/07 05:34:44;;;;;;;;;;;19.20;26.70;;;;;;494272;241;1220;-76
2022/01/07 05:36:46;;;;;;;;;;;19.30;26.70;;;;;;494351;241;1194;-76
2022/01/07 05:38:47;;;;;;;;;;;19.30;26.60;;;;;;494417;241;1180;-76
2022/01/07 05:40:48;;;;;;;;;;;19.50;26.40;;;;;;494404;241;1290;-76
2022/01/07 05:42:49;;;;;;;;;;;19.40;26.40;;;;;;494277;241;1380;-76
2022/01/07 05:44:51;;;;;;;;;;;19.30;26.40;;;;;;494327;241;1068;-76
2022/01/07 05:46:52;;;;;;;;;;;19.30;26.50;;;;;;494202;241;1107;-76
2022/01/07 05:48:53;;;;;;;;;;;19.30;26.40;;;;;;494307;241;1033;-76
2022/01/07 05:50:55;;;;;;;;;;;19.30;26.50;;;;;;494292;241;2178;-76
2022/01/07 05:52:56;;;;;;;;;;;19.30;26.50;;;;;;494491;241;1110;-76
2022/01/07 05:54:57;;;;;;;;;;;19.30;26.50;;;;;;494433;241;1052;-76
2022/01/07 05:56:59;;;;;;;;;;;19.40;26.40;;;;;;494322;241;1114;-76
2022/01/07 05:59:00;;;;;;;;;;;19.40;26.40;;;;;;494615;241;1066;-76
2022/01/07 06:01:01;;;;;;;;;;;19.40;26.30;;;;;;494279;241;1217;-76
2022/01/07 06:03:03;;;;;;;;;;;19.30;26.30;;;;;;494503;241;1022;-76
2022/01/07 06:05:04;;;;;;;;;;;19.30;26.40;;;;;;494606;241;1048;-76
2022/01/07 06:07:05;;;;;;;;;;;19.30;26.40;;;;;;494274;241;1163;-76
2022/01/07 06:09:07;;;;;;;;;;;19.20;26.40;;;;;;494291;241;1038;-76
2022/01/07 06:11:08;;;;;;;;;;;19.20;26.40;;;;;;494290;241;2128;-76
2022/01/07 06:13:09;;;;;;;;;;;19.30;26.40;;;;;;494467;241;1233;-76
2022/01/07 06:15:10;;;;;;;;;;;19.30;26.30;;;;;;494291;241;1080;-76
2022/01/07 06:17:12;;;;;;;;;;;19.30;26.30;;;;;;494363;241;1187;-76
2022/01/07 06:19:14;;;;;;;;;;;19.30;26.30;;;;;;494406;241;1034;-76
2022/01/07 06:21:15;;;;;;;;;;;19.30;26.20;;;;;;494200;241;1140;-77
2022/01/07 06:23:16;;;;;;;;;;;19.40;26.20;;;;;;494301;241;1179;-76
2022/01/07 06:25:18;;;;;;;;;;;19.30;26.30;;;;;;494279;241;1259;-76
2022/01/07 06:27:19;;;;;;;;;;;19.30;26.20;;;;;;494225;241;1283;-76
2022/01/07 06:29:20;;;;;;;;;;;19.30;26.20;;;;;;494305;241;1039;-76
2022/01/07 06:31:22;;;;;;;;;;;19.30;26.20;;;;;;494425;241;2144;-76
2022/01/07 06:33:23;;;;;;;;;;;19.40;26.30;;;;;;494501;241;1052;-77
2022/01/07 06:35:24;;;;;;;;;;;19.50;26.20;;;;;;494256;241;1242;-76
2022/01/07 06:37:25;;;;;;;;;;;19.40;26.20;;;;;;494414;241;1454;-76
2022/01/07 06:39:28;;;;;;;;;;;19.40;26.10;;;;;;494296;241;1481;-76
2022/01/07 06:41:28;;;;;;;;;;;19.30;26.20;;;;;;494375;241;1475;-76
2022/01/07 06:43:29;;;;;;;;;;;19.40;26.20;;;;;;494376;241;1007;-77
2022/01/07 06:45:31;;;;;;;;;;;19.30;26.20;;;;;;494230;241;1206;-77
2022/01/07 06:47:32;;;;;;;;;;;19.30;26.30;;;;;;494322;241;1136;-76
2022/01/07 06:49:33;;;;;;;;;;;19.20;26.20;;;;;;494512;241;1057;-76
2022/01/07 06:51:35;;;;;;;;;;;19.40;26.20;;;;;;494321;241;2165;-76
2022/01/07 06:53:36;;;;;;;;;;;19.40;26.10;;;;;;494209;241;1023;-76
2022/01/07 06:55:37;;;;;;;;;;;19.50;26.00;;;;;;494391;241;1187;-76
2022/01/07 06:57:39;;;;;;;;;;;19.40;26.00;;;;;;494229;241;1182;-76
2022/01/07 06:59:40;;;;;;;;;;;19.40;26.10;;;;;;494291;241;1000;-76
2022/01/07 07:01:41;;;;;;;;;;;19.40;26.00;;;;;;494182;241;1354;-77
2022/01/07 07:03:43;;;;;;;;;;;19.30;26.10;;;;;;494222;241;1159;-76
2022/01/07 07:05:44;;;;;;;;;;;19.30;26.10;;;;;;494174;241;1085;-76
2022/01/07 07:07:45;;;;;;;;;;;19.30;26.10;;;;;;494245;241;1100;-76
2022/01/07 07:09:47;;;;;;;;;;;19.30;26.10;;;;;;494283;241;1072;-76
2022/01/07 07:11:48;;;;;;;;;;;19.40;26.10;;;;;;494402;241;2190;-76
2022/01/07 07:13:49;;;;;;;;;;;19.40;26.00;;;;;;494383;241;1058;-76
2022/01/07 07:15:51;;;;;;;;;;;19.40;26.10;;;;;;494279;241;1191;-76
2022/01/07 07:17:52;;;;;;;;;;;19.30;26.10;;;;;;494491;241;1125;-76
2022/01/07 07:19:53;;;;;;;;;;;19.30;26.10;;;;;;494287;241;1035;-76
2022/01/07 07:21:54;;;;;;;;;;;19.30;26.10;;;;;;494423;241;1201;-76
2022/01/07 07:23:56;;;;;;;;;;;19.30;26.10;;;;;;494300;241;1042;-76
2022/01/07 07:25:57;;;;;;;;;;;19.30;26.00;;;;;;494355;241;1572;-76
2022/01/07 07:27:59;;;;;;;;;;;19.30;26.10;;;;;;494214;241;1602;-76
2022/01/07 07:30:00;;;;;;;;;;;19.30;26.10;;;;;;494194;241;1008;-76
2022/01/07 07:32:06;;;;;;;;;;;19.30;26.10;;;;;;494138;241;2186;-76
2022/01/07 07:36:35;;;;;;;;;;;19.30;26.10;;;;;;476847;241;1227;-76
2022/01/07 07:38:36;;;;;;;;;;;19.40;26.00;;;;;;494117;241;1181;-76
2022/01/07 07:40:38;;;;;;;;;;;19.30;26.00;;;;;;494396;241;1147;-76
2022/01/07 07:42:39;;;;;;;;;;;19.30;26.10;;;;;;494197;241;1128;-76
2022/01/07 07:44:40;;;;;;;;;;;19.30;26.00;;;;;;494265;241;1061;-76
2022/01/07 07:46:42;;;;;;;;;;;19.30;26.00;;;;;;494288;241;1174;-76
2022/01/07 07:48:45;;;;;;;;;;;19.40;26.10;;;;;;494266;241;1079;-76
2022/01/07 07:50:44;;;;;;;;;;;19.40;26.10;;;;;;494169;241;1432;-76
2022/01/07 07:52:46;;;;;;;;;;;19.40;26.10;;;;;;494198;241;2128;-76
2022/01/07 07:54:47;;;;;;;;;;;19.40;26.10;;;;;;494236;241;1048;-76
2022/01/07 07:56:48;;;;;;;;;;;19.40;26.10;;;;;;494231;241;1159;-76
2022/01/07 07:58:50;;;;;;;;;;;19.40;26.10;;;;;;494237;241;1174;-76
2022/01/07 08:00:51;;;;;;;;;;;19.40;26.20;;;;;;494638;241;1224;-76
2022/01/07 08:02:53;;;;;;;;;;;19.40;26.10;;;;;;494204;241;1048;-76
2022/01/07 08:04:54;;;;;;;;;;;19.30;26.20;;;;;;494377;241;1047;-76
2022/01/07 08:06:55;;;;;;;;;;;19.30;26.20;;;;;;494295;241;1107;-76
2022/01/07 08:08:57;;;;;;;;;;;19.30;26.20;;;;;;494279;241;1143;-76
2022/01/07 08:11:00;;;;;;;;;;;19.50;26.10;;;;;;494341;241;1072;-76
2022/01/07 08:13:26;;;;;;;;;;;19.40;26.10;;;;;;494157;241;2235;-76
2022/01/07 08:17:25;;;;;;;;;;;19.40;26.20;;;;;;494243;241;1176;-76
2022/01/07 08:19:26;;;;;;;;;;;19.30;26.30;;;;;;494239;241;1075;-76
2022/01/07 08:21:28;;;;;;;;;;;19.30;26.30;;;;;;494109;241;1241;-76
2022/01/07 08:23:29;;;;;;;;;;;19.30;26.30;;;;;;494256;241;1154;-76
2022/01/07 08:25:31;;;;;;;;;;;19.30;26.30;;;;;;494238;241;1199;-76
2022/01/07 08:27:32;;;;;;;;;;;19.30;26.30;;;;;;494202;241;1433;-76
2022/01/07 08:29:35;;;;;;;;;;;19.40;26.30;;;;;;494544;241;1017;-77
2022/01/07 08:36:13;;;;;;;;;;;19.50;26.20;;;;;;494157;241;1384;-76
2022/01/07 08:38:14;;;;;;;;;;;19.40;26.20;;;;;;494480;241;1201;-76
2022/01/07 08:40:15;;;;;;;;;;;19.40;26.20;;;;;;494269;241;1065;-76
2022/01/07 08:42:17;;;;;;;;;;;19.40;26.30;;;;;;494412;241;1445;-76
2022/01/07 08:44:19;;;;;;;;;;;19.30;26.30;;;;;;494432;241;1025;-76
2022/01/07 08:46:19;;;;;;;;;;;19.30;26.30;;;;;;494158;241;1334;-76
2022/01/07 08:48:21;;;;;;;;;;;19.30;26.30;;;;;;494159;241;1213;-76
2022/01/07 08:50:22;;;;;;;;;;;19.40;26.30;;;;;;494247;241;1621;-76
2022/01/07 08:52:23;;;;;;;;;;;19.40;26.20;;;;;;494244;241;2130;-76
2022/01/07 08:54:25;;;;;;;;;;;19.30;26.30;;;;;;494299;241;1128;-76
2022/01/07 08:56:26;;;;;;;;;;;19.40;26.30;;;;;;494237;241;1281;-76
2022/01/07 08:58:27;;;;;;;;;;;19.30;26.30;;;;;;494277;241;1114;-76
2022/01/07 09:00:28;;;;;;;;;;;19.30;26.30;;;;;;494391;241;1029;-76
2022/01/07 09:02:30;;;;;;;;;;;19.40;26.30;;;;;;494206;241;1187;-76
2022/01/07 09:04:31;;;;;;;;;;;19.40;26.30;;;;;;494278;241;1044;-76
2022/01/07 09:06:33;;;;;;;;;;;19.50;26.20;;;;;;494331;241;1370;-76
2022/01/07 09:08:34;;;;;;;;;;;19.50;26.20;;;;;;494331;241;1036;-76
2022/01/07 09:10:35;;;;;;;;;;;19.50;26.20;;;;;;494301;241;1113;-76
2022/01/07 09:12:37;;;;;;;;;;;19.50;26.20;;;;;;494298;241;2131;-76
2022/01/07 09:14:38;;;;;;;;;;;19.50;26.20;;;;;;494393;241;1021;-76
2022/01/07 09:16:39;;;;;;;;;;;19.40;26.20;;;;;;494190;241;1246;-76
2022/01/07 09:18:41;;;;;;;;;;;19.40;26.30;;;;;;494252;241;1018;-76
2022/01/07 09:20:42;;;;;;;;;;;19.40;26.30;;;;;;494543;241;1292;-76
2022/01/07 09:22:43;;;;;;;;;;;19.50;26.30;;;;;;494406;241;1051;-76
2022/01/07 09:24:45;;;;;;;;;;;19.50;26.20;;;;;;494318;241;1015;-76
2022/01/07 09:26:46;;;;;;;;;;;19.50;26.30;;;;;;494505;241;1195;-77
2022/01/07 09:28:47;;;;;;;;;;;19.50;26.30;;;;;;494289;241;1174;-76
2022/01/07 09:30:48;;;;;;;;;;;19.50;26.30;;;;;;494270;241;1053;-75
2022/01/07 09:32:50;;;;;;;;;;;19.50;26.30;;;;;;494291;241;2195;-75
2022/01/07 09:34:51;;;;;;;;;;;19.50;26.30;;;;;;494270;241;1051;-75
2022/01/07 09:36:53;;;;;;;;;;;19.40;26.30;;;;;;494209;241;1167;-77
2022/01/07 09:38:54;;;;;;;;;;;19.60;26.40;;;;;;494361;241;1177;-79
2022/01/07 09:40:55;;;;;;;;;;;19.60;26.10;;;;;;494208;241;1639;-77
2022/01/07 09:42:56;;;;;;;;;;;19.60;26.20;;;;;;494291;241;1153;-77
2022/01/07 09:44:58;;;;;;;;;;;19.50;26.30;;;;;;494272;241;1022;-77
2022/01/07 09:46:59;;;;;;;;;;;19.60;26.40;;;;;;494283;241;1190;-77
2022/01/07 09:49:00;;;;;;;;;;;19.60;26.30;;;;;;494306;241;1069;-77
2022/01/07 09:51:02;;;;;;;;;;;19.50;26.30;;;;;;494305;241;1516;-77
2022/01/07 09:53:04;;;;;;;;;;;19.50;26.40;;;;;;494151;241;2189;-77
2022/01/07 09:55:04;;;;;;;;;;;19.50;26.50;;;;;;494442;241;1345;-77
2022/01/07 09:57:06;;;;;;;;;;;19.50;26.40;;;;;;494309;241;1332;-78
2022/01/07 09:59:07;;;;;;;;;;;19.70;26.40;;;;;;494401;241;1231;-77
2022/01/07 10:01:09;;;;;;;;;;;19.70;26.50;;;;;;494301;241;1542;-77
2022/01/07 10:03:11;;;;;;;;;;;19.60;26.50;;;;;;494225;241;1103;-77
2022/01/07 10:05:12;;;;;;;;;;;19.60;26.30;;;;;;494303;241;930;-77
2022/01/07 10:07:16;;;;;;;;;;;19.60;26.40;;;;;;494184;241;1084;-77
2022/01/07 10:09:16;;;;;;;;;;;19.60;26.40;;;;;;494086;241;1524;-77
2022/01/07 10:11:18;;;;;;;;;;;19.60;26.30;;;;;;494265;241;1430;-76
2022/01/07 10:13:18;;;;;;;;;;;19.60;26.40;;;;;;494162;241;2123;-76
2022/01/07 10:15:19;;;;;;;;;;;19.60;26.30;;;;;;494149;241;1075;-77
2022/01/07 10:17:20;;;;;;;;;;;19.60;26.40;;;;;;494139;241;1091;-77
2022/01/07 10:19:22;;;;;;;;;;;19.70;26.30;;;;;;494203;241;1071;-77
2022/01/07 10:21:23;;;;;;;;;;;19.70;26.30;;;;;;494075;241;1215;-77
2022/01/07 10:23:24;;;;;;;;;;;19.80;26.20;;;;;;494268;241;1072;-77
2022/01/07 10:25:26;;;;;;;;;;;19.80;26.20;;;;;;494409;241;1022;-77
2022/01/07 10:27:27;;;;;;;;;;;19.70;26.30;;;;;;494241;241;1085;-77
2022/01/07 10:29:29;;;;;;;;;;;19.60;26.30;;;;;;494268;241;1068;-77
2022/01/07 10:31:30;;;;;;;;;;;19.60;26.40;;;;;;494476;241;1335;-77
2022/01/07 10:33:31;;;;;;;;;;;19.60;26.40;;;;;;494181;241;2120;-77
2022/01/07 10:35:34;;;;;;;;;;;19.60;26.40;;;;;;494205;241;1134;-77
2022/01/07 10:37:34;;;;;;;;;;;19.80;26.30;;;;;;493974;241;1381;-77
2022/01/07 10:39:35;;;;;;;;;;;19.80;26.30;;;;;;494266;241;1007;-77
2022/01/07 10:41:37;;;;;;;;;;;19.80;26.20;;;;;;494243;241;1489;-77
2022/01/07 10:43:38;;;;;;;;;;;19.80;26.20;;;;;;494207;241;1158;-77
2022/01/07 10:45:39;;;;;;;;;;;19.70;26.20;;;;;;494336;241;1199;-77
2022/01/07 10:47:40;;;;;;;;;;;19.70;26.30;;;;;;494445;241;1030;-77
2022/01/07 10:49:41;;;;;;;;;;;19.70;26.30;;;;;;494220;241;1061;-76
2022/01/07 10:51:44;;;;;;;;;;;19.70;26.30;;;;;;494130;241;1224;-76
2022/01/07 10:53:44;;;;;;;;;;;19.70;26.30;;;;;;494141;241;2179;-76
2022/01/07 10:55:45;;;;;;;;;;;19.90;26.20;;;;;;494263;241;1640;-76
2022/01/07 10:57:47;;;;;;;;;;;19.80;26.10;;;;;;494206;241;1094;-77
2022/01/07 10:59:48;;;;;;;;;;;19.70;26.10;;;;;;494297;241;1176;-77
2022/01/07 11:01:49;;;;;;;;;;;19.70;26.20;;;;;;494169;241;1030;-77
2022/01/07 11:03:51;;;;;;;;;;;19.80;26.20;;;;;;494267;241;1076;-77
2022/01/07 11:05:52;;;;;;;;;;;19.80;26.20;;;;;;494134;241;1047;-77
2022/01/07 11:07:56;;;;;;;;;;;19.70;26.20;;;;;;494178;241;964;-77
2022/01/07 11:09:56;;;;;;;;;;;19.80;26.10;;;;;;494041;241;1628;-77
2022/01/07 11:11:57;;;;;;;;;;;19.80;26.10;;;;;;494079;241;1167;-77
2022/01/07 11:13:59;;;;;;;;;;;19.80;26.20;;;;;;494235;241;2123;-77
2022/01/07 11:16:00;;;;;;;;;;;19.80;26.20;;;;;;494359;241;1200;-76
2022/01/07 11:18:01;;;;;;;;;;;19.90;26.20;;;;;;494341;241;1095;-76
2022/01/07 11:20:03;;;;;;;;;;;19.80;26.20;;;;;;494187;241;966;-76
2022/01/07 11:22:04;;;;;;;;;;;19.80;26.20;;;;;;494087;241;1131;-77
2022/01/07 11:24:05;;;;;;;;;;;19.80;26.10;;;;;;494274;241;955;-77
2022/01/07 11:26:07;;;;;;;;;;;19.90;26.20;;;;;;494160;241;1069;-77
2022/01/07 11:28:08;;;;;;;;;;;19.90;26.20;;;;;;494285;241;1098;-77
2022/01/07 11:30:11;;;;;;;;;;;19.80;26.20;;;;;;494191;241;1147;-77
2022/01/07 11:32:11;;;;;;;;;;;20.00;26.20;;;;;;494053;241;1335;-77
2022/01/07 11:34:12;;;;;;;;;;;19.90;26.10;;;;;;494309;241;2187;-77
2022/01/07 11:36:13;;;;;;;;;;;20.00;26.10;;;;;;494229;237;1712;-77
2022/01/07 11:38:15;;;;;;;;;;;20.00;26.00;;;;;;494345;241;1048;-77
2022/01/07 11:40:16;;;;;;;;;;;19.90;26.00;;;;;;494281;241;1038;-77
2022/01/07 11:42:17;;;;;;;;;;;20.00;26.00;;;;;;494178;241;1299;-77
2022/01/07 11:44:18;;;;;;;;;;;20.10;26.00;;;;;;494220;241;1162;-77
2022/01/07 11:46:20;;;;;;;;;;;20.00;25.90;;;;;;494335;241;1090;-77
2022/01/07 11:48:24;;;;;;;;;;;19.90;26.00;;;;;;494207;241;1153;-77
2022/01/07 11:50:23;;;;;;;;;;;20.00;26.00;;;;;;494294;241;1548;-77
2022/01/07 11:52:25;;;;;;;;;;;19.90;26.00;;;;;;494113;241;1208;-76
2022/01/07 11:54:28;;;;;;;;;;;19.80;26.10;;;;;;494256;241;2108;-76
2022/01/07 11:56:27;;;;;;;;;;;19.90;26.10;;;;;;494065;241;1387;-76
2022/01/07 11:58:29;;;;;;;;;;;19.80;26.10;;;;;;494257;241;1130;-77
2022/01/07 12:00:30;;;;;;;;;;;19.80;26.10;;;;;;494163;241;1186;-77
2022/01/07 12:02:31;;;;;;;;;;;19.80;26.10;;;;;;494105;241;1118;-77
2022/01/07 12:04:32;;;;;;;;;;;19.80;26.10;;;;;;494128;241;1345;-77
2022/01/07 12:06:34;;;;;;;;;;;19.90;26.10;;;;;;494155;241;1149;-77